sensor_id;sensor_type;location;lat;lon;timestamp;P1;durP1;ratioP1;P2;durP2;ratioP2
55776;SDS011;54079;44.540;18.784;2023-07-31T00:02:16;4.80;;;4.30;;
55776;SDS011;54079;44.540;18.784;2023-07-31T00:04:42;3.08;;;2.78;;
55776;SDS011;54079;44.540;18.784;2023-07-31T00:07:08;3.70;;;3.40;;
55776;SDS011;54079;44.540;18.784;2023-07-31T00:09:33;2.30;;;2.17;;
55776;SDS011;54079;44.540;18.784;2023-07-31T00:11:59;2.88;;;2.60;;
55776;SDS011;54079;44.540;18.784;2023-07-31T00:14:25;4.25;;;3.80;;
55776;SDS011;54079;44.540;18.784;2023-07-31T00:16:51;3.78;;;3.47;;
55776;SDS011;54079;44.540;18.784;2023-07-31T00:19:17;2.88;;;2.67;;
55776;SDS011;54079;44.540;18.784;2023-07-31T00:21:44;3.05;;;2.67;;
55776;SDS011;54079;44.540;18.784;2023-07-31T00:24:10;5.05;;;4.05;;
55776;SDS011;54079;44.540;18.784;2023-07-31T00:26:36;4.13;;;3.72;;
55776;SDS011;54079;44.540;18.784;2023-07-31T00:29:02;3.92;;;3.63;;
55776;SDS011;54079;44.540;18.784;2023-07-31T00:31:27;4.35;;;3.95;;
55776;SDS011;54079;44.540;18.784;2023-07-31T00:33:53;3.30;;;3.00;;
55776;SDS011;54079;44.540;18.784;2023-07-31T00:36:19;3.08;;;2.88;;
55776;SDS011;54079;44.540;18.784;2023-07-31T00:38:45;5.60;;;5.10;;
55776;SDS011;54079;44.540;18.784;2023-07-31T00:41:11;10.45;;;9.38;;
55776;SDS011;54079;44.540;18.784;2023-07-31T00:43:37;7.60;;;6.90;;
55776;SDS011;54079;44.540;18.784;2023-07-31T00:46:03;4.68;;;4.18;;
55776;SDS011;54079;44.540;18.784;2023-07-31T00:48:29;5.18;;;4.65;;
55776;SDS011;54079;44.540;18.784;2023-07-31T00:50:55;6.50;;;5.78;;
55776;SDS011;54079;44.540;18.784;2023-07-31T00:53:21;6.00;;;5.40;;
55776;SDS011;54079;44.540;18.784;2023-07-31T00:55:47;6.78;;;6.15;;
55776;SDS011;54079;44.540;18.784;2023-07-31T00:58:13;6.43;;;5.82;;
55776;SDS011;54079;44.540;18.784;2023-07-31T01:00:39;6.05;;;5.50;;
55776;SDS011;54079;44.540;18.784;2023-07-31T01:03:05;6.60;;;6.00;;
55776;SDS011;54079;44.540;18.784;2023-07-31T01:10:53;7.25;;;6.55;;
55776;SDS011;54079;44.540;18.784;2023-07-31T01:13:22;8.38;;;7.45;;
55776;SDS011;54079;44.540;18.784;2023-07-31T01:15:49;7.15;;;6.45;;
55776;SDS011;54079;44.540;18.784;2023-07-31T01:18:15;7.30;;;6.65;;
55776;SDS011;54079;44.540;18.784;2023-07-31T01:20:41;14.80;;;10.13;;
55776;SDS011;54079;44.540;18.784;2023-07-31T01:28:38;4.57;;;4.18;;
55776;SDS011;54079;44.540;18.784;2023-07-31T01:31:13;5.47;;;4.97;;
55776;SDS011;54079;44.540;18.784;2023-07-31T01:33:41;4.30;;;4.00;;
55776;SDS011;54079;44.540;18.784;2023-07-31T01:36:07;5.47;;;4.97;;
55776;SDS011;54079;44.540;18.784;2023-07-31T01:38:33;5.65;;;5.15;;
55776;SDS011;54079;44.540;18.784;2023-07-31T01:40:59;4.82;;;4.43;;
55776;SDS011;54079;44.540;18.784;2023-07-31T01:43:25;5.63;;;5.15;;
55776;SDS011;54079;44.540;18.784;2023-07-31T01:45:51;4.72;;;4.10;;
55776;SDS011;54079;44.540;18.784;2023-07-31T01:48:17;4.55;;;4.15;;
55776;SDS011;54079;44.540;18.784;2023-07-31T01:50:43;4.15;;;3.63;;
55776;SDS011;54079;44.540;18.784;2023-07-31T01:53:09;4.65;;;3.88;;
55776;SDS011;54079;44.540;18.784;2023-07-31T01:55:37;4.78;;;4.10;;
55776;SDS011;54079;44.540;18.784;2023-07-31T01:58:03;4.13;;;3.78;;
55776;SDS011;54079;44.540;18.784;2023-07-31T02:00:29;3.33;;;3.10;;
55776;SDS011;54079;44.540;18.784;2023-07-31T02:02:55;3.50;;;3.20;;
55776;SDS011;54079;44.540;18.784;2023-07-31T02:05:21;4.82;;;3.80;;
55776;SDS011;54079;44.540;18.784;2023-07-31T02:07:47;2.85;;;2.65;;
55776;SDS011;54079;44.540;18.784;2023-07-31T02:10:12;4.35;;;3.63;;
55776;SDS011;54079;44.540;18.784;2023-07-31T02:12:38;2.92;;;2.72;;
55776;SDS011;54079;44.540;18.784;2023-07-31T02:15:04;4.10;;;3.75;;
55776;SDS011;54079;44.540;18.784;2023-07-31T02:17:31;2.55;;;2.35;;
55776;SDS011;54079;44.540;18.784;2023-07-31T02:19:56;7.80;;;3.83;;
55776;SDS011;54079;44.540;18.784;2023-07-31T02:22:24;3.50;;;3.20;;
55776;SDS011;54079;44.540;18.784;2023-07-31T02:24:55;3.80;;;3.10;;
55776;SDS011;54079;44.540;18.784;2023-07-31T02:27:22;10.07;;;5.45;;
55776;SDS011;54079;44.540;18.784;2023-07-31T02:29:54;3.28;;;3.03;;
55776;SDS011;54079;44.540;18.784;2023-07-31T02:32:20;3.60;;;3.30;;
55776;SDS011;54079;44.540;18.784;2023-07-31T02:34:46;4.35;;;3.38;;
55776;SDS011;54079;44.540;18.784;2023-07-31T02:37:14;3.17;;;2.83;;
55776;SDS011;54079;44.540;18.784;2023-07-31T02:39:43;5.47;;;4.32;;
55776;SDS011;54079;44.540;18.784;2023-07-31T02:42:10;7.00;;;4.47;;
55776;SDS011;54079;44.540;18.784;2023-07-31T02:44:36;4.57;;;3.78;;
55776;SDS011;54079;44.540;18.784;2023-07-31T02:47:03;3.63;;;3.05;;
55776;SDS011;54079;44.540;18.784;2023-07-31T02:49:31;4.60;;;3.33;;
55776;SDS011;54079;44.540;18.784;2023-07-31T02:52:00;7.97;;;3.85;;
55776;SDS011;54079;44.540;18.784;2023-07-31T02:54:36;14.13;;;4.57;;
55776;SDS011;54079;44.540;18.784;2023-07-31T02:57:02;5.32;;;4.00;;
55776;SDS011;54079;44.540;18.784;2023-07-31T02:59:35;5.28;;;3.90;;
55776;SDS011;54079;44.540;18.784;2023-07-31T03:02:01;16.25;;;4.40;;
55776;SDS011;54079;44.540;18.784;2023-07-31T03:04:28;10.77;;;5.20;;
55776;SDS011;54079;44.540;18.784;2023-07-31T03:06:58;9.65;;;5.05;;
55776;SDS011;54079;44.540;18.784;2023-07-31T03:09:23;7.45;;;4.65;;
55776;SDS011;54079;44.540;18.784;2023-07-31T03:11:49;5.70;;;4.40;;
55776;SDS011;54079;44.540;18.784;2023-07-31T03:14:15;10.60;;;3.88;;
55776;SDS011;54079;44.540;18.784;2023-07-31T03:16:42;13.43;;;5.03;;
55776;SDS011;54079;44.540;18.784;2023-07-31T03:19:10;7.85;;;4.25;;
55776;SDS011;54079;44.540;18.784;2023-07-31T03:21:39;7.50;;;2.80;;
55776;SDS011;54079;44.540;18.784;2023-07-31T03:24:07;4.55;;;3.38;;
55776;SDS011;54079;44.540;18.784;2023-07-31T03:29:08;7.80;;;3.85;;
55776;SDS011;54079;44.540;18.784;2023-07-31T03:31:34;5.55;;;3.78;;
55776;SDS011;54079;44.540;18.784;2023-07-31T03:34:00;17.58;;;5.25;;
55776;SDS011;54079;44.540;18.784;2023-07-31T03:36:26;6.55;;;4.35;;
55776;SDS011;54079;44.540;18.784;2023-07-31T03:38:52;3.60;;;2.95;;
55776;SDS011;54079;44.540;18.784;2023-07-31T03:41:20;9.75;;;4.97;;
55776;SDS011;54079;44.540;18.784;2023-07-31T03:46:27;5.20;;;3.78;;
55776;SDS011;54079;44.540;18.784;2023-07-31T03:48:58;11.30;;;4.95;;
55776;SDS011;54079;44.540;18.784;2023-07-31T03:51:24;9.30;;;5.45;;
55776;SDS011;54079;44.540;18.784;2023-07-31T03:53:53;7.75;;;5.38;;
55776;SDS011;54079;44.540;18.784;2023-07-31T03:56:20;6.22;;;4.82;;
55776;SDS011;54079;44.540;18.784;2023-07-31T03:58:47;13.10;;;7.00;;
55776;SDS011;54079;44.540;18.784;2023-07-31T04:01:13;5.97;;;4.40;;
55776;SDS011;54079;44.540;18.784;2023-07-31T04:03:39;9.07;;;6.25;;
55776;SDS011;54079;44.540;18.784;2023-07-31T04:06:05;10.65;;;6.10;;
55776;SDS011;54079;44.540;18.784;2023-07-31T04:08:32;7.55;;;5.07;;
55776;SDS011;54079;44.540;18.784;2023-07-31T04:10:58;6.20;;;4.18;;
55776;SDS011;54079;44.540;18.784;2023-07-31T04:13:25;5.00;;;2.90;;
55776;SDS011;54079;44.540;18.784;2023-07-31T04:15:53;4.07;;;2.97;;
55776;SDS011;54079;44.540;18.784;2023-07-31T04:18:19;4.28;;;2.75;;
55776;SDS011;54079;44.540;18.784;2023-07-31T04:20:45;3.70;;;2.80;;
55776;SDS011;54079;44.540;18.784;2023-07-31T04:23:11;4.47;;;2.55;;
55776;SDS011;54079;44.540;18.784;2023-07-31T04:25:37;4.20;;;3.40;;
55776;SDS011;54079;44.540;18.784;2023-07-31T04:28:03;5.28;;;4.78;;
55776;SDS011;54079;44.540;18.784;2023-07-31T04:30:29;3.85;;;3.05;;
55776;SDS011;54079;44.540;18.784;2023-07-31T04:32:55;4.00;;;3.60;;
55776;SDS011;54079;44.540;18.784;2023-07-31T04:35:21;3.00;;;2.70;;
55776;SDS011;54079;44.540;18.784;2023-07-31T04:37:47;2.55;;;2.35;;
55776;SDS011;54079;44.540;18.784;2023-07-31T04:40:14;3.60;;;3.30;;
55776;SDS011;54079;44.540;18.784;2023-07-31T04:42:40;3.10;;;2.90;;
55776;SDS011;54079;44.540;18.784;2023-07-31T04:45:08;2.80;;;2.60;;
55776;SDS011;54079;44.540;18.784;2023-07-31T04:47:34;6.45;;;5.03;;
55776;SDS011;54079;44.540;18.784;2023-07-31T04:50:00;5.07;;;4.57;;
55776;SDS011;54079;44.540;18.784;2023-07-31T04:52:26;4.82;;;4.43;;
55776;SDS011;54079;44.540;18.784;2023-07-31T04:54:53;3.53;;;3.22;;
55776;SDS011;54079;44.540;18.784;2023-07-31T04:57:20;3.33;;;3.05;;
55776;SDS011;54079;44.540;18.784;2023-07-31T04:59:46;2.78;;;2.58;;
55776;SDS011;54079;44.540;18.784;2023-07-31T05:02:12;3.00;;;2.80;;
55776;SDS011;54079;44.540;18.784;2023-07-31T05:04:38;3.22;;;2.92;;
55776;SDS011;54079;44.540;18.784;2023-07-31T05:07:04;5.00;;;4.60;;
55776;SDS011;54079;44.540;18.784;2023-07-31T05:09:30;3.95;;;3.63;;
55776;SDS011;54079;44.540;18.784;2023-07-31T05:11:56;2.70;;;2.50;;
55776;SDS011;54079;44.540;18.784;2023-07-31T05:14:22;2.50;;;2.30;;
55776;SDS011;54079;44.540;18.784;2023-07-31T05:16:48;2.75;;;2.55;;
55776;SDS011;54079;44.540;18.784;2023-07-31T05:19:14;4.43;;;4.10;;
55776;SDS011;54079;44.540;18.784;2023-07-31T05:21:40;3.75;;;3.45;;
55776;SDS011;54079;44.540;18.784;2023-07-31T05:24:06;5.72;;;4.32;;
55776;SDS011;54079;44.540;18.784;2023-07-31T05:26:32;3.47;;;3.17;;
55776;SDS011;54079;44.540;18.784;2023-07-31T05:28:58;2.90;;;2.70;;
55776;SDS011;54079;44.540;18.784;2023-07-31T05:31:23;2.38;;;2.17;;
55776;SDS011;54079;44.540;18.784;2023-07-31T05:33:50;2.22;;;2.03;;
55776;SDS011;54079;44.540;18.784;2023-07-31T05:36:28;2.22;;;1.73;;
55776;SDS011;54079;44.540;18.784;2023-07-31T05:38:54;2.70;;;2.50;;
55776;SDS011;54079;44.540;18.784;2023-07-31T05:41:20;3.72;;;3.42;;
55776;SDS011;54079;44.540;18.784;2023-07-31T05:43:46;3.13;;;2.92;;
55776;SDS011;54079;44.540;18.784;2023-07-31T05:46:12;1.85;;;1.75;;
55776;SDS011;54079;44.540;18.784;2023-07-31T05:48:38;3.17;;;2.97;;
55776;SDS011;54079;44.540;18.784;2023-07-31T05:51:03;3.25;;;3.05;;
55776;SDS011;54079;44.540;18.784;2023-07-31T05:53:29;2.72;;;2.53;;
55776;SDS011;54079;44.540;18.784;2023-07-31T05:55:56;3.05;;;2.85;;
55776;SDS011;54079;44.540;18.784;2023-07-31T05:58:21;2.90;;;2.70;;
55776;SDS011;54079;44.540;18.784;2023-07-31T06:00:49;2.08;;;1.98;;
55776;SDS011;54079;44.540;18.784;2023-07-31T06:03:15;2.55;;;2.00;;
55776;SDS011;54079;44.540;18.784;2023-07-31T06:05:41;1.80;;;1.70;;
55776;SDS011;54079;44.540;18.784;2023-07-31T06:08:07;2.42;;;2.22;;
55776;SDS011;54079;44.540;18.784;2023-07-31T06:10:33;2.00;;;1.90;;
55776;SDS011;54079;44.540;18.784;2023-07-31T06:12:59;1.80;;;1.70;;
55776;SDS011;54079;44.540;18.784;2023-07-31T06:15:25;1.90;;;1.80;;
55776;SDS011;54079;44.540;18.784;2023-07-31T06:17:52;1.45;;;1.35;;
55776;SDS011;54079;44.540;18.784;2023-07-31T06:20:27;1.65;;;1.55;;
55776;SDS011;54079;44.540;18.784;2023-07-31T06:22:53;2.05;;;1.88;;
55776;SDS011;54079;44.540;18.784;2023-07-31T06:25:19;1.70;;;1.58;;
55776;SDS011;54079;44.540;18.784;2023-07-31T06:27:46;2.40;;;2.30;;
55776;SDS011;54079;44.540;18.784;2023-07-31T06:30:12;1.50;;;1.40;;
55776;SDS011;54079;44.540;18.784;2023-07-31T06:32:38;1.40;;;1.30;;
55776;SDS011;54079;44.540;18.784;2023-07-31T06:35:05;1.60;;;1.50;;
55776;SDS011;54079;44.540;18.784;2023-07-31T06:37:32;2.25;;;2.15;;
55776;SDS011;54079;44.540;18.784;2023-07-31T06:39:58;1.52;;;1.42;;
55776;SDS011;54079;44.540;18.784;2023-07-31T06:42:23;1.70;;;1.50;;
55776;SDS011;54079;44.540;18.784;2023-07-31T06:44:49;1.70;;;1.60;;
55776;SDS011;54079;44.540;18.784;2023-07-31T06:47:15;1.90;;;1.80;;
55776;SDS011;54079;44.540;18.784;2023-07-31T06:49:41;1.42;;;1.10;;
55776;SDS011;54079;44.540;18.784;2023-07-31T06:52:07;0.63;;;0.63;;
55776;SDS011;54079;44.540;18.784;2023-07-31T06:54:34;1.30;;;1.15;;
55776;SDS011;54079;44.540;18.784;2023-07-31T06:57:00;3.50;;;1.13;;
55776;SDS011;54079;44.540;18.784;2023-07-31T06:59:26;1.00;;;1.00;;
55776;SDS011;54079;44.540;18.784;2023-07-31T07:01:52;2.03;;;1.83;;
55776;SDS011;54079;44.540;18.784;2023-07-31T07:04:18;1.30;;;1.20;;
55776;SDS011;54079;44.540;18.784;2023-07-31T07:06:44;1.23;;;0.90;;
55776;SDS011;54079;44.540;18.784;2023-07-31T07:09:10;2.05;;;1.00;;
55776;SDS011;54079;44.540;18.784;2023-07-31T07:11:36;2.15;;;1.30;;
55776;SDS011;54079;44.540;18.784;2023-07-31T07:14:02;1.42;;;1.20;;
55776;SDS011;54079;44.540;18.784;2023-07-31T07:16:28;1.20;;;1.10;;
55776;SDS011;54079;44.540;18.784;2023-07-31T07:18:54;1.25;;;1.15;;
55776;SDS011;54079;44.540;18.784;2023-07-31T07:21:20;0.95;;;0.95;;
55776;SDS011;54079;44.540;18.784;2023-07-31T07:23:46;1.35;;;1.10;;
55776;SDS011;54079;44.540;18.784;2023-07-31T07:26:12;1.17;;;1.08;;
55776;SDS011;54079;44.540;18.784;2023-07-31T07:28:38;1.48;;;1.10;;
55776;SDS011;54079;44.540;18.784;2023-07-31T07:31:04;1.52;;;1.42;;
55776;SDS011;54079;44.540;18.784;2023-07-31T07:33:30;1.70;;;1.30;;
55776;SDS011;54079;44.540;18.784;2023-07-31T07:35:59;1.90;;;1.58;;
55776;SDS011;54079;44.540;18.784;2023-07-31T07:38:27;1.65;;;1.55;;
55776;SDS011;54079;44.540;18.784;2023-07-31T07:40:52;4.57;;;2.13;;
55776;SDS011;54079;44.540;18.784;2023-07-31T07:43:19;2.33;;;2.13;;
55776;SDS011;54079;44.540;18.784;2023-07-31T07:45:45;1.33;;;1.20;;
55776;SDS011;54079;44.540;18.784;2023-07-31T07:48:10;0.90;;;0.90;;
55776;SDS011;54079;44.540;18.784;2023-07-31T07:50:38;0.63;;;0.63;;
55776;SDS011;54079;44.540;18.784;2023-07-31T07:53:04;2.30;;;1.10;;
55776;SDS011;54079;44.540;18.784;2023-07-31T07:55:30;1.17;;;0.98;;
55776;SDS011;54079;44.540;18.784;2023-07-31T07:57:56;1.30;;;1.20;;
55776;SDS011;54079;44.540;18.784;2023-07-31T08:00:22;1.95;;;1.17;;
55776;SDS011;54079;44.540;18.784;2023-07-31T08:02:48;2.00;;;1.10;;
55776;SDS011;54079;44.540;18.784;2023-07-31T08:05:14;0.95;;;0.95;;
55776;SDS011;54079;44.540;18.784;2023-07-31T08:07:40;1.58;;;1.48;;
55776;SDS011;54079;44.540;18.784;2023-07-31T08:10:06;1.67;;;1.58;;
55776;SDS011;54079;44.540;18.784;2023-07-31T08:12:32;0.90;;;0.90;;
55776;SDS011;54079;44.540;18.784;2023-07-31T08:14:58;1.60;;;1.50;;
55776;SDS011;54079;44.540;18.784;2023-07-31T08:17:25;1.80;;;1.70;;
55776;SDS011;54079;44.540;18.784;2023-07-31T08:19:51;1.65;;;1.52;;
55776;SDS011;54079;44.540;18.784;2023-07-31T08:22:17;0.90;;;0.90;;
55776;SDS011;54079;44.540;18.784;2023-07-31T08:24:42;1.20;;;1.10;;
55776;SDS011;54079;44.540;18.784;2023-07-31T08:27:08;0.90;;;0.90;;
55776;SDS011;54079;44.540;18.784;2023-07-31T08:29:34;1.88;;;1.10;;
55776;SDS011;54079;44.540;18.784;2023-07-31T08:32:00;1.30;;;1.30;;
55776;SDS011;54079;44.540;18.784;2023-07-31T08:34:26;0.70;;;0.70;;
55776;SDS011;54079;44.540;18.784;2023-07-31T08:36:52;1.25;;;1.23;;
55776;SDS011;54079;44.540;18.784;2023-07-31T08:39:18;0.75;;;0.75;;
55776;SDS011;54079;44.540;18.784;2023-07-31T08:41:44;1.23;;;1.13;;
55776;SDS011;54079;44.540;18.784;2023-07-31T08:44:10;0.85;;;0.85;;
55776;SDS011;54079;44.540;18.784;2023-07-31T08:46:37;1.08;;;1.08;;
55776;SDS011;54079;44.540;18.784;2023-07-31T08:49:06;1.02;;;1.02;;
55776;SDS011;54079;44.540;18.784;2023-07-31T08:51:36;1.65;;;1.55;;
55776;SDS011;54079;44.540;18.784;2023-07-31T08:54:02;1.10;;;1.10;;
55776;SDS011;54079;44.540;18.784;2023-07-31T08:56:29;1.20;;;1.20;;
55776;SDS011;54079;44.540;18.784;2023-07-31T08:58:57;1.85;;;1.25;;
55776;SDS011;54079;44.540;18.784;2023-07-31T09:01:24;1.00;;;1.00;;
55776;SDS011;54079;44.540;18.784;2023-07-31T09:03:54;1.30;;;1.30;;
55776;SDS011;54079;44.540;18.784;2023-07-31T09:06:21;1.88;;;1.30;;
55776;SDS011;54079;44.540;18.784;2023-07-31T09:08:48;1.85;;;1.75;;
55776;SDS011;54079;44.540;18.784;2023-07-31T09:11:15;1.35;;;1.20;;
55776;SDS011;54079;44.540;18.784;2023-07-31T09:13:41;1.38;;;1.27;;
55776;SDS011;54079;44.540;18.784;2023-07-31T09:16:08;1.58;;;1.48;;
55776;SDS011;54079;44.540;18.784;2023-07-31T09:21:33;1.95;;;1.40;;
55776;SDS011;54079;44.540;18.784;2023-07-31T09:24:14;1.85;;;1.70;;
55776;SDS011;54079;44.540;18.784;2023-07-31T09:26:52;1.48;;;1.38;;
55776;SDS011;54079;44.540;18.784;2023-07-31T09:29:24;1.30;;;1.20;;
55776;SDS011;54079;44.540;18.784;2023-07-31T09:31:51;0.98;;;0.98;;
55776;SDS011;54079;44.540;18.784;2023-07-31T09:34:18;1.40;;;1.30;;
55776;SDS011;54079;44.540;18.784;2023-07-31T09:36:54;1.13;;;0.90;;
55776;SDS011;54079;44.540;18.784;2023-07-31T09:39:19;1.33;;;1.23;;
55776;SDS011;54079;44.540;18.784;2023-07-31T09:41:55;0.85;;;0.85;;
55776;SDS011;54079;44.540;18.784;2023-07-31T09:44:36;1.00;;;1.00;;
55776;SDS011;54079;44.540;18.784;2023-07-31T09:47:06;1.45;;;1.35;;
55776;SDS011;54079;44.540;18.784;2023-07-31T09:49:32;1.05;;;0.95;;
55776;SDS011;54079;44.540;18.784;2023-07-31T09:51:58;1.27;;;1.17;;
55776;SDS011;54079;44.540;18.784;2023-07-31T09:54:24;1.90;;;1.40;;
55776;SDS011;54079;44.540;18.784;2023-07-31T09:56:50;1.73;;;1.63;;
55776;SDS011;54079;44.540;18.784;2023-07-31T09:59:18;1.60;;;1.50;;
55776;SDS011;54079;44.540;18.784;2023-07-31T10:01:45;1.83;;;1.40;;
55776;SDS011;54079;44.540;18.784;2023-07-31T10:04:12;2.42;;;1.67;;
55776;SDS011;54079;44.540;18.784;2023-07-31T10:06:39;1.00;;;0.90;;
55776;SDS011;54079;44.540;18.784;2023-07-31T10:09:08;3.92;;;3.53;;
55776;SDS011;54079;44.540;18.784;2023-07-31T10:11:42;3.90;;;2.85;;
55776;SDS011;54079;44.540;18.784;2023-07-31T10:14:21;1.85;;;1.55;;
55776;SDS011;54079;44.540;18.784;2023-07-31T10:16:49;1.35;;;1.23;;
55776;SDS011;54079;44.540;18.784;2023-07-31T10:19:15;1.35;;;1.20;;
55776;SDS011;54079;44.540;18.784;2023-07-31T10:21:43;1.10;;;1.00;;
55776;SDS011;54079;44.540;18.784;2023-07-31T10:24:09;1.42;;;1.33;;
55776;SDS011;54079;44.540;18.784;2023-07-31T10:26:37;1.70;;;1.60;;
55776;SDS011;54079;44.540;18.784;2023-07-31T10:29:05;2.13;;;1.50;;
55776;SDS011;54079;44.540;18.784;2023-07-31T10:31:31;1.50;;;1.40;;
55776;SDS011;54079;44.540;18.784;2023-07-31T10:33:59;1.42;;;1.20;;
55776;SDS011;54079;44.540;18.784;2023-07-31T10:36:25;1.50;;;1.40;;
55776;SDS011;54079;44.540;18.784;2023-07-31T10:38:52;1.35;;;1.08;;
55776;SDS011;54079;44.540;18.784;2023-07-31T10:41:26;1.30;;;1.20;;
55776;SDS011;54079;44.540;18.784;2023-07-31T10:43:57;1.73;;;1.10;;
55776;SDS011;54079;44.540;18.784;2023-07-31T10:46:24;1.45;;;1.35;;
55776;SDS011;54079;44.540;18.784;2023-07-31T10:48:56;1.05;;;1.05;;
55776;SDS011;54079;44.540;18.784;2023-07-31T10:51:24;1.27;;;1.17;;
55776;SDS011;54079;44.540;18.784;2023-07-31T10:54:13;1.10;;;1.00;;
55776;SDS011;54079;44.540;18.784;2023-07-31T10:56:44;1.73;;;1.45;;
55776;SDS011;54079;44.540;18.784;2023-07-31T10:59:11;2.50;;;1.70;;
55776;SDS011;54079;44.540;18.784;2023-07-31T11:01:52;1.73;;;1.63;;
55776;SDS011;54079;44.540;18.784;2023-07-31T11:04:23;1.52;;;1.42;;
55776;SDS011;54079;44.540;18.784;2023-07-31T11:06:59;1.23;;;1.13;;
55776;SDS011;54079;44.540;18.784;2023-07-31T11:09:28;1.95;;;1.73;;
55776;SDS011;54079;44.540;18.784;2023-07-31T11:11:57;1.65;;;1.55;;
55776;SDS011;54079;44.540;18.784;2023-07-31T11:14:24;1.58;;;1.48;;
55776;SDS011;54079;44.540;18.784;2023-07-31T11:16:50;0.90;;;0.90;;
55776;SDS011;54079;44.540;18.784;2023-07-31T11:19:23;1.83;;;1.30;;
55776;SDS011;54079;44.540;18.784;2023-07-31T11:21:50;1.08;;;1.08;;
55776;SDS011;54079;44.540;18.784;2023-07-31T11:24:19;1.75;;;1.35;;
55776;SDS011;54079;44.540;18.784;2023-07-31T11:26:49;1.33;;;1.23;;
55776;SDS011;54079;44.540;18.784;2023-07-31T11:29:18;1.83;;;1.73;;
55776;SDS011;54079;44.540;18.784;2023-07-31T11:31:45;1.35;;;1.25;;
55776;SDS011;54079;44.540;18.784;2023-07-31T11:34:14;1.77;;;1.60;;
55776;SDS011;54079;44.540;18.784;2023-07-31T11:36:52;1.10;;;1.05;;
55776;SDS011;54079;44.540;18.784;2023-07-31T11:39:21;1.70;;;1.33;;
55776;SDS011;54079;44.540;18.784;2023-07-31T11:41:47;2.40;;;2.20;;
55776;SDS011;54079;44.540;18.784;2023-07-31T11:44:13;1.65;;;1.55;;
55776;SDS011;54079;44.540;18.784;2023-07-31T11:46:39;1.23;;;1.10;;
55776;SDS011;54079;44.540;18.784;2023-07-31T11:49:05;4.53;;;3.70;;
55776;SDS011;54079;44.540;18.784;2023-07-31T11:51:31;1.80;;;1.70;;
55776;SDS011;54079;44.540;18.784;2023-07-31T11:53:57;4.07;;;1.90;;
55776;SDS011;54079;44.540;18.784;2023-07-31T11:56:26;1.52;;;0.93;;
55776;SDS011;54079;44.540;18.784;2023-07-31T11:58:57;1.48;;;1.38;;
55776;SDS011;54079;44.540;18.784;2023-07-31T12:01:27;1.48;;;1.38;;
55776;SDS011;54079;44.540;18.784;2023-07-31T12:03:53;1.40;;;1.30;;
55776;SDS011;54079;44.540;18.784;2023-07-31T12:06:20;1.40;;;1.30;;
55776;SDS011;54079;44.540;18.784;2023-07-31T12:08:47;1.58;;;1.48;;
55776;SDS011;54079;44.540;18.784;2023-07-31T12:11:14;1.63;;;1.48;;
55776;SDS011;54079;44.540;18.784;2023-07-31T12:13:40;1.42;;;1.20;;
55776;SDS011;54079;44.540;18.784;2023-07-31T12:16:06;1.85;;;1.52;;
55776;SDS011;54079;44.540;18.784;2023-07-31T12:18:36;1.60;;;1.27;;
55776;SDS011;54079;44.540;18.784;2023-07-31T12:21:04;2.93;;;1.87;;
55776;SDS011;54079;44.540;18.784;2023-07-31T12:23:32;1.30;;;1.20;;
55776;SDS011;54079;44.540;18.784;2023-07-31T12:26:02;0.93;;;0.93;;
55776;SDS011;54079;44.540;18.784;2023-07-31T12:28:30;1.50;;;1.40;;
55776;SDS011;54079;44.540;18.784;2023-07-31T12:31:00;1.55;;;1.45;;
55776;SDS011;54079;44.540;18.784;2023-07-31T12:33:36;1.35;;;1.25;;
55776;SDS011;54079;44.540;18.784;2023-07-31T12:36:06;1.90;;;1.80;;
55776;SDS011;54079;44.540;18.784;2023-07-31T12:38:36;0.70;;;0.70;;
55776;SDS011;54079;44.540;18.784;2023-07-31T12:41:02;1.60;;;1.50;;
55776;SDS011;54079;44.540;18.784;2023-07-31T12:43:29;1.23;;;1.13;;
55776;SDS011;54079;44.540;18.784;2023-07-31T12:45:55;1.38;;;1.27;;
55776;SDS011;54079;44.540;18.784;2023-07-31T12:48:21;1.48;;;1.25;;
55776;SDS011;54079;44.540;18.784;2023-07-31T12:50:47;1.27;;;1.17;;
55776;SDS011;54079;44.540;18.784;2023-07-31T12:53:14;0.98;;;0.88;;
55776;SDS011;54079;44.540;18.784;2023-07-31T12:55:40;1.55;;;1.45;;
55776;SDS011;54079;44.540;18.784;2023-07-31T12:58:06;1.40;;;1.30;;
55776;SDS011;54079;44.540;18.784;2023-07-31T13:00:32;1.58;;;1.27;;
55776;SDS011;54079;44.540;18.784;2023-07-31T13:02:58;1.50;;;1.13;;
55776;SDS011;54079;44.540;18.784;2023-07-31T13:05:25;1.52;;;0.98;;
55776;SDS011;54079;44.540;18.784;2023-07-31T13:07:51;0.93;;;0.93;;
55776;SDS011;54079;44.540;18.784;2023-07-31T13:10:17;1.60;;;1.50;;
55776;SDS011;54079;44.540;18.784;2023-07-31T13:12:44;1.40;;;1.30;;
55776;SDS011;54079;44.540;18.784;2023-07-31T13:15:09;1.50;;;1.40;;
55776;SDS011;54079;44.540;18.784;2023-07-31T13:17:36;0.95;;;0.95;;
55776;SDS011;54079;44.540;18.784;2023-07-31T13:20:02;1.35;;;1.25;;
55776;SDS011;54079;44.540;18.784;2023-07-31T13:22:29;0.85;;;0.85;;
55776;SDS011;54079;44.540;18.784;2023-07-31T13:24:55;2.47;;;1.98;;
55776;SDS011;54079;44.540;18.784;2023-07-31T13:27:21;1.30;;;1.20;;
55776;SDS011;54079;44.540;18.784;2023-07-31T13:29:47;1.48;;;1.13;;
55776;SDS011;54079;44.540;18.784;2023-07-31T13:32:15;1.80;;;1.70;;
55776;SDS011;54079;44.540;18.784;2023-07-31T13:34:42;1.48;;;1.38;;
55776;SDS011;54079;44.540;18.784;2023-07-31T13:37:08;1.90;;;1.45;;
55776;SDS011;54079;44.540;18.784;2023-07-31T13:39:34;1.30;;;1.20;;
55776;SDS011;54079;44.540;18.784;2023-07-31T13:42:01;1.30;;;1.10;;
55776;SDS011;54079;44.540;18.784;2023-07-31T13:44:28;1.48;;;1.20;;
55776;SDS011;54079;44.540;18.784;2023-07-31T13:46:54;1.75;;;1.58;;
55776;SDS011;54079;44.540;18.784;2023-07-31T13:49:20;1.50;;;1.40;;
55776;SDS011;54079;44.540;18.784;2023-07-31T13:51:46;1.77;;;1.58;;
55776;SDS011;54079;44.540;18.784;2023-07-31T13:54:12;1.00;;;0.90;;
55776;SDS011;54079;44.540;18.784;2023-07-31T13:56:38;0.95;;;0.95;;
55776;SDS011;54079;44.540;18.784;2023-07-31T13:59:04;1.15;;;1.05;;
55776;SDS011;54079;44.540;18.784;2023-07-31T14:01:30;2.15;;;1.40;;
55776;SDS011;54079;44.540;18.784;2023-07-31T14:03:56;1.75;;;1.65;;
55776;SDS011;54079;44.540;18.784;2023-07-31T14:06:22;1.20;;;1.10;;
55776;SDS011;54079;44.540;18.784;2023-07-31T14:08:48;0.70;;;0.70;;
55776;SDS011;54079;44.540;18.784;2023-07-31T14:11:14;1.08;;;0.98;;
55776;SDS011;54079;44.540;18.784;2023-07-31T14:13:40;0.50;;;0.50;;
55776;SDS011;54079;44.540;18.784;2023-07-31T14:16:06;1.17;;;1.08;;
55776;SDS011;54079;44.540;18.784;2023-07-31T14:18:32;1.70;;;1.38;;
55776;SDS011;54079;44.540;18.784;2023-07-31T14:20:58;1.48;;;1.38;;
55776;SDS011;54079;44.540;18.784;2023-07-31T14:23:24;1.77;;;1.48;;
55776;SDS011;54079;44.540;18.784;2023-07-31T14:25:50;3.58;;;2.60;;
55776;SDS011;54079;44.540;18.784;2023-07-31T14:28:16;1.83;;;1.27;;
55776;SDS011;54079;44.540;18.784;2023-07-31T14:30:41;1.55;;;1.45;;
55776;SDS011;54079;44.540;18.784;2023-07-31T14:33:08;1.77;;;1.65;;
55776;SDS011;54079;44.540;18.784;2023-07-31T14:35:34;1.50;;;1.30;;
55776;SDS011;54079;44.540;18.784;2023-07-31T14:38:00;1.30;;;1.20;;
55776;SDS011;54079;44.540;18.784;2023-07-31T14:40:26;1.35;;;1.25;;
55776;SDS011;54079;44.540;18.784;2023-07-31T14:42:52;1.40;;;1.30;;
55776;SDS011;54079;44.540;18.784;2023-07-31T14:45:18;1.38;;;1.02;;
55776;SDS011;54079;44.540;18.784;2023-07-31T14:47:44;1.27;;;1.17;;
55776;SDS011;54079;44.540;18.784;2023-07-31T14:50:10;1.45;;;1.35;;
55776;SDS011;54079;44.540;18.784;2023-07-31T14:52:36;1.45;;;1.10;;